createdAt,value
2019-04-22T00:03:18.346Z,26
2019-04-22T00:09:45.418Z,26
2019-04-22T00:14:40.429Z,25
2019-04-22T00:20:22.223Z,25
2019-04-22T00:24:29.803Z,27
2019-04-22T00:30:46.783Z,28
2019-04-22T00:40:19.442Z,26
2019-04-22T00:45:05.737Z,28
2019-04-22T00:51:01.144Z,26
2019-04-22T00:59:37.238Z,26
2019-04-22T01:05:07.226Z,27
2019-04-22T01:10:31.565Z,29
2019-04-22T01:14:27.870Z,27
2019-04-22T01:20:04.282Z,28
2019-04-22T01:24:15.555Z,28
2019-04-22T01:29:04.888Z,25
2019-04-22T01:33:37.162Z,27
2019-04-22T01:39:14.995Z,27
2019-04-22T01:45:44.598Z,26
2019-04-22T01:50:30.504Z,27
2019-04-22T01:55:56.975Z,28
2019-04-22T01:59:10.853Z,26
2019-04-22T02:05:04.212Z,26
2019-04-22T02:10:27.940Z,47
2019-04-22T02:15:05.511Z,32
2019-04-22T02:20:16.677Z,31
2019-04-22T02:25:08.159Z,33
2019-04-22T04:10:57.361Z,40
2019-04-22T04:16:02.685Z,41
2019-04-22T04:21:40.529Z,40
2019-04-22T04:27:30.615Z,41
2019-04-22T04:36:33.878Z,39
2019-04-22T05:18:37.073Z,34
2019-04-22T05:28:29.794Z,30
2019-04-22T05:33:20.896Z,34
2019-04-22T05:38:46.149Z,49
2019-04-22T05:43:07.476Z,41
2019-04-22T05:47:38.795Z,40
2019-04-22T05:53:13.039Z,34
2019-04-22T05:58:08.139Z,44
2019-04-22T06:03:37.479Z,41
2019-04-22T06:07:38.324Z,33
2019-04-22T06:12:31.290Z,33
2019-04-22T06:23:03.664Z,32
2019-04-22T06:33:33.724Z,30
2019-04-22T06:38:58.814Z,21
2019-04-22T06:55:59.287Z,22
2019-04-22T07:00:36.448Z,18
2019-04-22T07:05:07.270Z,19
2019-04-22T07:15:23.002Z,18
2019-04-22T07:20:30.006Z,18
2019-04-22T07:25:45.020Z,19
2019-04-22T07:30:31.058Z,18
2019-04-22T07:45:35.710Z,16
2019-04-22T07:50:48.816Z,18
2019-04-22T07:55:00.590Z,18
2019-04-22T08:00:54.847Z,21
2019-04-22T08:06:11.502Z,17
2019-04-22T08:10:48.146Z,19
2019-04-22T08:15:38.581Z,20
2019-04-22T08:20:58.156Z,17
2019-04-22T08:25:31.251Z,21
2019-04-22T08:30:53.448Z,16
2019-04-22T08:40:19.810Z,19
2019-04-22T08:46:04.870Z,24
2019-04-22T08:50:50.545Z,19
2019-04-22T08:55:38.049Z,19
2019-04-22T09:00:49.696Z,19
2019-04-22T09:06:04.341Z,22
2019-04-22T09:10:43.132Z,18
2019-04-22T09:16:02.015Z,20
2019-04-22T09:20:40.115Z,18
2019-04-22T09:30:39.660Z,20
2019-04-22T09:35:35.966Z,19
2019-04-22T09:40:38.874Z,17
2019-04-22T09:45:27.290Z,20
2019-04-22T09:55:49.648Z,25
2019-04-22T10:00:42.450Z,22
2019-04-22T10:05:40.512Z,20
2019-04-22T10:11:03.820Z,19
2019-04-22T10:20:30.697Z,22
2019-04-22T10:25:29.186Z,20
2019-04-22T10:30:42.800Z,20
2019-04-22T10:34:26.841Z,20
2019-04-22T10:38:36.884Z,23
2019-04-22T10:43:37.231Z,21
2019-04-22T10:48:36.784Z,22
2019-04-22T10:53:35.794Z,21
2019-04-22T10:58:35.761Z,21
2019-04-22T11:03:37.435Z,22
2019-04-22T11:09:00.996Z,24
2019-04-22T11:13:36.106Z,21
2019-04-22T11:18:35.938Z,22
2019-04-22T11:23:36.664Z,22
2019-04-22T11:28:36.110Z,23
2019-04-22T11:33:36.556Z,19
2019-04-22T11:38:58.289Z,22
2019-04-22T11:43:36.403Z,20
2019-04-22T11:48:36.092Z,20
2019-04-22T11:53:41.100Z,22
2019-04-22T11:58:37.415Z,26
2019-04-22T12:03:35.954Z,22
2019-04-22T12:08:37.541Z,19
2019-04-22T12:13:35.975Z,17
2019-04-22T12:18:37.506Z,22
2019-04-22T12:23:37.270Z,21
2019-04-22T12:26:25.614Z,21
2019-04-22T12:31:22.021Z,20
2019-04-22T12:36:22.778Z,22
2019-04-22T12:41:21.890Z,17
2019-04-22T12:51:29.352Z,24
2019-04-22T12:56:28.046Z,18
2019-04-22T13:01:29.118Z,19
2019-04-22T13:06:28.152Z,24
2019-04-22T13:11:40.317Z,21
2019-04-22T13:16:31.307Z,18
2019-04-22T13:21:29.045Z,20
2019-04-22T13:26:27.516Z,21
2019-04-22T13:31:29.079Z,22
2019-04-22T13:36:31.936Z,20
2019-04-22T13:41:56.220Z,21
2019-04-22T13:46:35.647Z,29
2019-04-22T13:55:55.875Z,21
2019-04-22T14:01:28.489Z,22
2019-04-22T14:06:29.270Z,22
2019-04-22T14:12:03.705Z,24
2019-04-22T14:16:29.121Z,21
2019-04-22T14:21:27.485Z,21
2019-04-22T14:27:20.614Z,25
2019-04-22T14:31:28.848Z,22
2019-04-22T14:36:27.743Z,23
2019-04-22T14:42:34.201Z,25
2019-04-22T14:48:05.685Z,24
2019-04-22T14:56:28.819Z,23
2019-04-22T15:01:28.927Z,20
2019-04-22T15:06:28.667Z,33
2019-04-22T15:12:03.082Z,25
2019-04-22T15:16:28.138Z,26
2019-04-22T15:21:29.035Z,27
2019-04-22T15:26:28.740Z,27
2019-04-22T15:31:29.406Z,27
2019-04-22T15:36:28.454Z,30
2019-04-22T15:41:28.770Z,25
2019-04-22T15:46:28.126Z,27
2019-04-22T15:51:29.055Z,40
2019-04-22T15:56:28.599Z,29
2019-04-22T16:01:42.864Z,30
2019-04-22T16:06:28.233Z,30
2019-04-22T16:11:28.107Z,32
2019-04-22T16:16:28.541Z,32
2019-04-22T16:22:00.945Z,29
2019-04-22T16:26:28.544Z,29
2019-04-22T16:31:29.534Z,31
2019-04-22T16:36:29.272Z,31
2019-04-22T16:41:28.903Z,30
2019-04-22T16:46:29.401Z,32
2019-04-22T16:51:28.093Z,30
2019-04-22T16:56:37.254Z,28
2019-04-22T17:01:28.630Z,32
2019-04-22T17:06:28.088Z,30
2019-04-22T17:11:28.079Z,30
2019-04-22T17:16:28.617Z,32
2019-04-22T17:21:28.076Z,31
2019-04-22T17:26:28.721Z,35
2019-04-22T17:31:29.169Z,39
2019-04-22T17:36:29.997Z,41
2019-04-22T17:43:02.549Z,39
2019-04-22T17:47:23.284Z,40
2019-04-22T17:53:25.847Z,38
2019-04-22T18:02:26.464Z,39
2019-04-22T18:07:54.318Z,38
2019-04-22T18:13:19.980Z,35
2019-04-22T18:18:04.897Z,38
2019-04-22T18:22:29.210Z,36
2019-04-22T18:28:23.248Z,34
2019-04-22T18:32:07.541Z,35
2019-04-22T18:37:28.282Z,34
2019-04-22T18:42:49.262Z,32
2019-04-22T18:53:02.919Z,37
2019-04-22T18:57:30.840Z,36
2019-04-22T19:01:30.247Z,32
2019-04-22T19:08:22.438Z,32
2019-04-22T19:13:43.429Z,30
2019-04-22T19:18:01.573Z,30
2019-04-22T19:22:51.330Z,30
2019-04-22T19:27:58.482Z,30
2019-04-22T19:32:57.067Z,29
2019-04-22T19:37:44.995Z,30
2019-04-22T19:48:44.622Z,38
2019-04-22T19:53:22.496Z,36
2019-04-22T19:57:39.595Z,36
2019-04-22T20:02:41.968Z,35
2019-04-22T20:07:33.142Z,34
2019-04-22T20:12:52.573Z,36
2019-04-22T20:17:57.206Z,36
2019-04-22T20:22:36.922Z,37
2019-04-22T20:32:44.368Z,44
2019-04-22T20:38:13.409Z,39
2019-04-22T20:43:21.570Z,41
2019-04-22T20:47:33.929Z,43
2019-04-22T20:53:29.655Z,42
2019-04-22T20:57:52.892Z,43
2019-04-22T21:02:32.199Z,42
2019-04-22T21:07:38.283Z,40
2019-04-22T21:12:22.238Z,62
2019-04-22T21:17:55.172Z,44
2019-04-22T21:22:47.552Z,39
2019-04-22T21:28:09.450Z,39
2019-04-22T21:32:38.116Z,40
2019-04-22T21:39:03.270Z,40
2019-04-22T21:43:04.055Z,39
2019-04-22T21:48:41.039Z,37
2019-04-22T21:53:06.369Z,39
2019-04-22T21:58:06.403Z,36
2019-04-22T22:07:09.605Z,36
2019-04-22T22:17:35.145Z,41
2019-04-22T22:23:36.911Z,40
2019-04-22T22:27:47.330Z,39
2019-04-22T22:37:13.173Z,40
2019-04-22T22:41:30.546Z,41
2019-04-22T22:47:28.308Z,44
2019-04-22T22:53:44.269Z,41
2019-04-22T22:58:09.971Z,42
2019-04-22T23:03:16.638Z,42
2019-04-22T23:08:38.033Z,40
2019-04-22T23:13:35.819Z,42
2019-04-22T23:17:03.640Z,40
2019-04-22T23:21:56.083Z,41
2019-04-22T23:27:32.112Z,39
2019-04-22T23:32:24.816Z,39
2019-04-22T23:37:27.616Z,38
2019-04-22T23:47:14.558Z,40
2019-04-22T23:53:15.777Z,38
